EGAC

George Best Belfast City Airport

Belfast, United Kingdom
METAR EGAC 180050Z AUTO 17004KT 9999 NCD 06/04 Q1028
Observed Flight Rules
Oct-18 @ 00:50 UTC (21 minutes ago) Visual Flight Rules
Wind Visibility Clouds
170° at 4 knots 10,000+ meters
  • Clear skies
Temperatures Readings
Current 6°C / 43°F
Dewpoint 4°C / 39°F
Humidity 87%
Altimeter 30.35" Hg
Pressure 1028 hPa
Elevation 5
METAR EGAC 180050Z AUTO 17004KT 9999 NCD 06/04 Q1028
Observed Flight Rules
Oct-18 @ 00:50 UTC
(21 minutes ago)
VFR
Wind Visibility
170° at 4 knots 10,000+ meters
Clouds
  • Clear skies
Temperature Dewpoint
6°C / 43°F 4°C / 39°F
Humidity Altimeter Pressure
87% 30.35" Hg 1028 hPa